createdAt,value
2018-07-10T00:00:23.289Z,1012.10
2018-07-10T00:01:23.278Z,1012.09
2018-07-10T00:02:23.336Z,1012.12
2018-07-10T00:03:23.258Z,1012.10
2018-07-10T00:04:23.245Z,1012.12
2018-07-10T00:05:23.236Z,1012.10
2018-07-10T00:06:23.230Z,1012.12
2018-07-10T00:07:23.277Z,1012.10
2018-07-10T00:08:23.209Z,1012.09
2018-07-10T00:09:23.189Z,1012.03
2018-07-10T00:10:23.181Z,1012.08
2018-07-10T00:11:23.257Z,1012.04
2018-07-10T00:12:23.287Z,1012.03
2018-07-10T00:13:23.158Z,1012.01
2018-07-10T00:14:23.136Z,1012.12
2018-07-10T00:15:23.141Z,1012.05
2018-07-10T00:16:23.117Z,1012.07
2018-07-10T00:17:23.172Z,1012.01
2018-07-10T00:18:23.678Z,1012.02
2018-07-10T00:19:23.089Z,1011.99
2018-07-10T00:20:23.081Z,1012.10
2018-07-10T00:21:23.067Z,1012.04
2018-07-10T00:22:23.120Z,1012.07
2018-07-10T00:23:23.044Z,1012.12
2018-07-10T00:24:23.034Z,1012.02
2018-07-10T00:25:23.022Z,1012.04
2018-07-10T00:26:23.025Z,1012.01
2018-07-10T00:27:23.117Z,1012.02
2018-07-10T00:28:22.992Z,1012.04
2018-07-10T00:29:22.983Z,1012.01
2018-07-10T00:30:22.981Z,1012.05
2018-07-10T00:31:22.956Z,1012.04
2018-07-10T00:32:23.023Z,1012.09
2018-07-10T00:33:22.937Z,1012.04
2018-07-10T00:34:22.931Z,1012.08
2018-07-10T00:35:22.914Z,1012.16
2018-07-10T00:36:22.911Z,1012.07
2018-07-10T00:37:22.965Z,1012.02
2018-07-10T00:38:22.890Z,1012.04
2018-07-10T00:39:23.668Z,1012.05
2018-07-10T00:40:22.867Z,1011.99
2018-07-10T00:41:22.859Z,1012.01
2018-07-10T00:42:22.906Z,1012.03
2018-07-10T00:43:22.829Z,1012.00
2018-07-10T00:44:22.826Z,1011.97
2018-07-10T00:45:22.808Z,1012.00
2018-07-10T00:46:22.799Z,1011.94
2018-07-10T00:47:23.675Z,1012.06
2018-07-10T00:48:22.779Z,1011.96
2018-07-10T00:49:22.768Z,1012.02
2018-07-10T00:50:22.760Z,1012.00
2018-07-10T00:51:22.744Z,1012.05
2018-07-10T00:52:22.804Z,1012.00
2018-07-10T00:53:22.722Z,1011.97
2018-07-10T00:54:22.718Z,1012.03
2018-07-10T00:55:22.705Z,1012.06
2018-07-10T00:56:22.696Z,1012.02
2018-07-10T00:57:22.744Z,1011.96
2018-07-10T00:58:22.670Z,1011.92
2018-07-10T00:59:22.658Z,1012.05
2018-07-10T01:00:23.172Z,1012.05
2018-07-10T01:01:22.636Z,1011.99
2018-07-10T01:02:22.715Z,1011.95
2018-07-10T01:03:22.616Z,1011.95
2018-07-10T01:04:22.605Z,1011.86
2018-07-10T01:05:22.595Z,1011.92
2018-07-10T01:06:22.584Z,1011.86
2018-07-10T01:07:22.575Z,1011.96
2018-07-10T01:08:22.630Z,1011.93
2018-07-10T01:09:22.558Z,1011.95
2018-07-10T01:10:22.545Z,1011.87
2018-07-10T01:11:22.531Z,1011.89
2018-07-10T01:12:22.520Z,1011.87
2018-07-10T01:13:22.584Z,1011.86
2018-07-10T01:14:22.498Z,1011.81
2018-07-10T01:15:22.489Z,1011.83
2018-07-10T01:16:22.496Z,1011.81
2018-07-10T01:17:22.473Z,1011.82
2018-07-10T01:18:22.525Z,1011.77
2018-07-10T01:19:22.451Z,1011.82
2018-07-10T01:20:22.437Z,1011.84
2018-07-10T01:21:23.168Z,1011.85
2018-07-10T01:22:22.417Z,1011.74
2018-07-10T01:23:22.478Z,1011.72
2018-07-10T01:24:22.392Z,1011.76
2018-07-10T01:25:22.382Z,1011.73
2018-07-10T01:26:22.371Z,1011.73
2018-07-10T01:27:22.381Z,1011.74
2018-07-10T01:28:22.426Z,1011.72
2018-07-10T01:29:22.407Z,1011.75
2018-07-10T01:30:22.339Z,1011.77
2018-07-10T01:31:22.326Z,1011.75
2018-07-10T01:32:22.310Z,1011.71
2018-07-10T01:33:22.370Z,1011.69
2018-07-10T01:34:22.304Z,1011.76
2018-07-10T01:35:22.282Z,1011.70
2018-07-10T01:36:22.298Z,1011.73
2018-07-10T01:37:22.273Z,1011.71
2018-07-10T01:38:22.744Z,1011.66
2018-07-10T01:39:22.240Z,1011.70
2018-07-10T01:40:22.229Z,1011.70
2018-07-10T01:41:22.216Z,1011.62
2018-07-10T01:42:23.240Z,1011.64
2018-07-10T01:43:22.326Z,1011.65
2018-07-10T01:44:22.196Z,1011.71
2018-07-10T01:45:22.190Z,1011.68
2018-07-10T01:46:22.165Z,1011.68
2018-07-10T01:47:22.152Z,1011.63
2018-07-10T01:48:22.215Z,1011.76
2018-07-10T01:49:22.138Z,1011.79
2018-07-10T01:50:22.132Z,1011.76
2018-07-10T01:51:22.113Z,1011.78
2018-07-10T01:52:22.102Z,1011.78
2018-07-10T01:53:22.166Z,1011.78
2018-07-10T01:54:22.083Z,1011.72
2018-07-10T01:55:22.076Z,1011.70
2018-07-10T01:56:22.074Z,1011.75
2018-07-10T01:57:22.050Z,1011.79
2018-07-10T01:58:22.118Z,1011.80
2018-07-10T01:59:22.032Z,1011.72
2018-07-10T02:00:22.035Z,1011.77
2018-07-10T02:01:22.003Z,1011.73
2018-07-10T02:02:22.004Z,1011.78
2018-07-10T02:03:22.232Z,1011.77
2018-07-10T02:04:21.973Z,1011.76
2018-07-10T02:05:21.966Z,1011.81
2018-07-10T02:06:21.971Z,1011.76
2018-07-10T02:07:21.942Z,1011.89
2018-07-10T02:08:21.996Z,1011.79
2018-07-10T02:09:21.936Z,1011.69
2018-07-10T02:10:30.068Z,1011.75
2018-07-10T02:11:30.042Z,1011.78
2018-07-10T02:12:22.019Z,1011.77
2018-07-10T02:13:21.945Z,1011.73
2018-07-10T02:14:21.883Z,1011.72
2018-07-10T02:15:21.898Z,1011.75
2018-07-10T02:16:21.847Z,1011.74
2018-07-10T02:17:21.858Z,1011.81
2018-07-10T02:18:31.360Z,1011.85
2018-07-10T02:19:29.393Z,1011.79
2018-07-10T02:20:29.923Z,1011.76
2018-07-10T02:21:29.313Z,1011.78
2018-07-10T02:23:31.480Z,1011.87
2018-07-10T02:24:31.596Z,1011.81
2018-07-10T02:25:31.392Z,1011.83
2018-07-10T02:26:31.390Z,1011.81
2018-07-10T02:27:31.377Z,1011.86
2018-07-10T02:28:31.424Z,1011.87
2018-07-10T02:29:31.350Z,1011.77
2018-07-10T02:30:31.340Z,1011.77
2018-07-10T02:31:31.336Z,1011.75
2018-07-10T02:32:31.320Z,1011.75
2018-07-10T02:33:31.396Z,1011.78
2018-07-10T02:34:31.300Z,1011.82
2018-07-10T02:35:31.288Z,1011.79
2018-07-10T02:36:31.280Z,1011.68
2018-07-10T02:37:31.273Z,1011.63
2018-07-10T02:38:31.707Z,1011.68
2018-07-10T02:39:31.248Z,1011.72
2018-07-10T02:40:31.239Z,1011.67
2018-07-10T02:41:31.231Z,1011.78
2018-07-10T02:42:31.215Z,1011.76
2018-07-10T02:43:31.715Z,1011.71
2018-07-10T02:44:31.192Z,1011.79
2018-07-10T02:45:31.182Z,1011.75
2018-07-10T02:46:31.167Z,1011.74
2018-07-10T02:47:31.159Z,1011.86
2018-07-10T02:48:31.223Z,1011.83
2018-07-10T02:49:31.139Z,1011.74
2018-07-10T02:50:31.126Z,1011.79
2018-07-10T02:51:31.115Z,1011.77
2018-07-10T02:52:31.104Z,1011.83
2018-07-10T02:53:31.237Z,1011.80
2018-07-10T02:54:31.082Z,1011.81
2018-07-10T02:55:31.070Z,1011.83
2018-07-10T02:56:31.113Z,1011.85
2018-07-10T02:57:31.050Z,1011.82
2018-07-10T02:58:31.113Z,1011.84
2018-07-10T02:59:31.033Z,1011.83
2018-07-10T03:00:31.018Z,1011.75
2018-07-10T03:01:31.023Z,1011.84
2018-07-10T03:02:31.002Z,1011.84
2018-07-10T03:03:31.058Z,1011.87
2018-07-10T03:04:31.635Z,1011.84
2018-07-10T03:05:30.969Z,1011.85
2018-07-10T03:06:30.958Z,1011.82
2018-07-10T03:07:30.944Z,1011.84
2018-07-10T03:08:30.933Z,1011.77
2018-07-10T03:09:30.995Z,1011.85
2018-07-10T03:10:30.911Z,1011.84
2018-07-10T03:11:30.905Z,1011.92
2018-07-10T03:12:30.894Z,1011.86
2018-07-10T03:13:30.886Z,1011.88
2018-07-10T03:14:30.933Z,1011.85
2018-07-10T03:15:30.859Z,1011.86
2018-07-10T03:16:30.908Z,1011.90
2018-07-10T03:17:30.836Z,1011.97
2018-07-10T03:18:30.966Z,1011.94
2018-07-10T03:19:30.878Z,1011.89
2018-07-10T03:20:30.806Z,1011.86
2018-07-10T03:21:30.796Z,1011.86
2018-07-10T03:22:30.781Z,1011.92
2018-07-10T03:23:30.786Z,1011.93
2018-07-10T03:24:30.833Z,1011.98
2018-07-10T03:25:31.628Z,1011.90
2018-07-10T03:26:30.742Z,1011.89
2018-07-10T03:27:30.746Z,1011.92
2018-07-10T03:28:30.718Z,1011.89
2018-07-10T03:29:30.823Z,1011.94
2018-07-10T03:30:30.709Z,1011.85
2018-07-10T03:31:30.695Z,1011.84
2018-07-10T03:32:30.678Z,1011.93
2018-07-10T03:33:30.664Z,1011.96
2018-07-10T03:34:30.723Z,1011.90
2018-07-10T03:35:30.646Z,1011.87
2018-07-10T03:36:30.642Z,1011.95
2018-07-10T03:37:30.621Z,1011.95
2018-07-10T03:38:30.609Z,1011.87
2018-07-10T03:39:31.624Z,1011.88
2018-07-10T03:40:30.595Z,1011.92
2018-07-10T03:41:30.627Z,1011.89
2018-07-10T03:42:30.570Z,1011.91
2018-07-10T03:43:30.559Z,1012.00
2018-07-10T03:44:30.615Z,1011.90
2018-07-10T03:45:30.590Z,1011.97
2018-07-10T03:46:31.134Z,1011.99
2018-07-10T03:47:30.529Z,1012.01
2018-07-10T03:48:30.507Z,1011.93
2018-07-10T03:49:30.565Z,1012.00
2018-07-10T03:50:30.485Z,1011.95
2018-07-10T03:51:30.474Z,1011.98
2018-07-10T03:52:30.463Z,1011.99
2018-07-10T03:53:30.455Z,1011.99
2018-07-10T03:54:30.504Z,1012.00
2018-07-10T03:55:30.430Z,1011.96
2018-07-10T03:56:30.416Z,1012.05
2018-07-10T03:57:30.469Z,1012.06
2018-07-10T03:58:30.394Z,1012.02
2018-07-10T03:59:30.456Z,1011.97
2018-07-10T04:00:30.380Z,1012.01
2018-07-10T04:01:30.408Z,1012.00
2018-07-10T04:02:30.356Z,1012.03
2018-07-10T04:03:30.345Z,1012.01
2018-07-10T04:04:30.414Z,1012.01
2018-07-10T04:05:30.320Z,1011.96
2018-07-10T04:06:30.309Z,1011.89
2018-07-10T04:07:30.297Z,1011.92
2018-07-10T04:08:45.054Z,1011.99
2018-07-10T04:09:30.419Z,1011.97
2018-07-10T04:10:30.267Z,1011.94
2018-07-10T04:11:30.312Z,1012.01
2018-07-10T04:12:30.268Z,1012.00
2018-07-10T04:13:30.255Z,1011.98
2018-07-10T04:14:30.299Z,1011.95
2018-07-10T04:15:30.211Z,1011.99
2018-07-10T04:16:30.212Z,1011.95
2018-07-10T04:17:30.192Z,1012.02
2018-07-10T04:18:30.181Z,1011.98
2018-07-10T04:19:30.739Z,1011.99
2018-07-10T04:20:30.160Z,1011.98
2018-07-10T04:21:30.151Z,1011.93
2018-07-10T04:22:30.148Z,1011.97
2018-07-10T04:23:30.128Z,1011.98
2018-07-10T04:24:30.186Z,1011.96
2018-07-10T04:25:30.109Z,1011.98
2018-07-10T04:26:30.098Z,1011.97
2018-07-10T04:27:30.087Z,1011.98
2018-07-10T04:28:30.083Z,1011.89
2018-07-10T04:29:37.747Z,1011.96
2018-07-10T04:30:30.051Z,1011.91
2018-07-10T04:31:30.049Z,1011.90
2018-07-10T04:32:30.035Z,1011.91
2018-07-10T04:33:30.024Z,1011.89
2018-07-10T04:34:30.089Z,1011.87
2018-07-10T04:35:30.057Z,1011.95
2018-07-10T04:36:29.996Z,1011.91
2018-07-10T04:37:29.979Z,1011.91
2018-07-10T04:38:29.965Z,1011.90
2018-07-10T04:39:30.024Z,1011.88
2018-07-10T04:40:29.946Z,1011.94
2018-07-10T04:41:29.935Z,1011.89
2018-07-10T04:42:30.002Z,1011.89
2018-07-10T04:43:29.918Z,1011.90
2018-07-10T04:44:29.971Z,1011.89
2018-07-10T04:45:29.891Z,1011.90
2018-07-10T04:46:29.879Z,1011.86
2018-07-10T04:47:29.868Z,1011.91
2018-07-10T04:48:29.866Z,1011.95
2018-07-10T04:49:29.995Z,1011.86
2018-07-10T04:50:29.845Z,1011.90
2018-07-10T04:51:50.828Z,1011.82
2018-07-10T04:52:29.813Z,1011.87
2018-07-10T04:53:29.846Z,1011.86
2018-07-10T04:54:29.791Z,1011.83
2018-07-10T04:55:29.878Z,1011.88
2018-07-10T04:56:29.772Z,1011.82
2018-07-10T04:57:29.766Z,1011.86
2018-07-10T04:58:29.763Z,1011.86
2018-07-10T04:59:29.752Z,1011.87
2018-07-10T05:00:29.804Z,1011.89
2018-07-10T05:01:37.258Z,1011.92
2018-07-10T05:02:37.923Z,1011.88
2018-07-10T05:03:37.909Z,1011.87
2018-07-10T05:06:49.796Z,1011.92
2018-07-10T05:07:58.350Z,1011.89
2018-07-10T05:08:57.804Z,1011.95
2018-07-10T05:09:58.058Z,1011.92
2018-07-10T05:11:21.631Z,1011.84
2018-07-10T05:11:57.243Z,1011.84
2018-07-10T05:12:49.677Z,1011.87
2018-07-10T05:13:58.379Z,1011.92
2018-07-10T05:14:58.426Z,1011.84
2018-07-10T05:15:57.843Z,1011.83
2018-07-10T05:16:57.861Z,1011.90
2018-07-10T05:17:57.798Z,1011.84
2018-07-10T05:18:57.241Z,1011.86
2018-07-10T05:19:58.040Z,1011.84
2018-07-10T05:20:59.979Z,1011.84
2018-07-10T05:23:01.068Z,1011.79
2018-07-10T05:25:10.901Z,1011.85
2018-07-10T05:28:30.457Z,1011.84
2018-07-10T05:29:37.921Z,1011.87
2018-07-10T05:31:40.622Z,1011.93
2018-07-10T05:32:48.733Z,1011.83
2018-07-10T05:33:49.297Z,1011.87
2018-07-10T05:34:48.716Z,1011.83
2018-07-10T05:35:48.843Z,1011.87
2018-07-10T05:39:02.118Z,1011.85
2018-07-10T05:43:12.806Z,1011.82
2018-07-10T05:44:12.700Z,1011.81
2018-07-10T05:45:12.686Z,1011.76
2018-07-10T05:46:12.593Z,1011.84
2018-07-10T05:47:12.662Z,1011.77
2018-07-10T05:48:12.561Z,1011.80
2018-07-10T05:49:12.547Z,1011.83
2018-07-10T05:50:12.618Z,1011.80
2018-07-10T05:51:12.530Z,1011.82
2018-07-10T05:52:12.535Z,1011.83
2018-07-10T05:53:12.537Z,1011.76
2018-07-10T05:54:12.494Z,1011.73
2018-07-10T05:55:12.555Z,1011.77
2018-07-10T05:56:12.472Z,1011.80
2018-07-10T05:57:12.462Z,1011.78
2018-07-10T05:58:12.466Z,1011.76
2018-07-10T05:59:12.447Z,1011.79
2018-07-10T06:00:12.516Z,1011.82
2018-07-10T06:01:12.422Z,1011.80
2018-07-10T06:02:12.411Z,1011.77
2018-07-10T06:03:12.409Z,1011.79
2018-07-10T06:04:13.219Z,1011.77
2018-07-10T06:05:20.667Z,1011.82
2018-07-10T06:06:20.582Z,1011.78
2018-07-10T06:07:20.590Z,1011.75
2018-07-10T06:08:12.483Z,1011.75
2018-07-10T06:09:12.355Z,1011.81
2018-07-10T06:10:20.543Z,1011.80
2018-07-10T06:11:12.432Z,1011.75
2018-07-10T06:12:12.396Z,1011.74
2018-07-10T06:13:12.296Z,1011.76
2018-07-10T06:14:19.879Z,1011.73
2018-07-10T06:15:20.962Z,1011.72
2018-07-10T06:16:20.092Z,1011.75
2018-07-10T06:17:19.873Z,1011.70
2018-07-10T06:18:12.364Z,1011.70
2018-07-10T06:19:12.394Z,1011.65
2018-07-10T06:20:12.218Z,1011.70
2018-07-10T06:21:12.308Z,1011.62
2018-07-10T06:22:12.249Z,1011.58
2018-07-10T06:23:12.187Z,1011.54
2018-07-10T06:24:12.190Z,1011.57
2018-07-10T06:25:12.270Z,1011.50
2018-07-10T06:26:12.235Z,1011.56
2018-07-10T06:27:12.146Z,1011.52
2018-07-10T06:28:12.172Z,1011.48
2018-07-10T06:29:12.127Z,1011.48
2018-07-10T06:30:12.156Z,1011.46
2018-07-10T06:31:12.181Z,1011.55
2018-07-10T06:32:12.096Z,1011.54
2018-07-10T06:33:12.091Z,1011.50
2018-07-10T06:34:12.112Z,1011.55
2018-07-10T06:35:12.061Z,1011.53
2018-07-10T06:36:12.117Z,1011.55
2018-07-10T06:37:12.049Z,1011.54
2018-07-10T06:38:12.989Z,1011.47
2018-07-10T06:39:12.027Z,1011.42
2018-07-10T06:40:12.009Z,1011.43
2018-07-10T06:41:12.068Z,1011.52
2018-07-10T06:42:11.993Z,1011.48
2018-07-10T06:43:11.985Z,1011.78
2018-07-10T06:44:11.964Z,1011.71
2018-07-10T06:45:11.958Z,1011.60
2018-07-10T06:46:12.027Z,1011.68
2018-07-10T06:47:11.937Z,1011.60
2018-07-10T06:48:11.929Z,1011.34
2018-07-10T06:49:11.914Z,1011.65
2018-07-10T06:50:11.911Z,1011.58
2018-07-10T06:51:11.955Z,1011.55
2018-07-10T06:52:11.905Z,1011.58
2018-07-10T06:53:11.942Z,1011.53
2018-07-10T06:54:11.875Z,1011.34
2018-07-10T06:55:11.851Z,1011.61
2018-07-10T06:56:11.906Z,1011.65
2018-07-10T06:57:11.829Z,1011.54
2018-07-10T06:58:11.825Z,1011.58
2018-07-10T06:59:12.498Z,1011.61
2018-07-10T07:00:11.802Z,1011.58
2018-07-10T07:01:11.861Z,1011.31
2018-07-10T07:02:11.776Z,1011.58
2018-07-10T07:03:11.773Z,1011.24
2018-07-10T07:04:11.756Z,1011.31
2018-07-10T07:05:11.743Z,1011.37
2018-07-10T07:06:11.803Z,1011.60
2018-07-10T07:07:11.723Z,1011.39
2018-07-10T07:08:11.715Z,1011.28
2018-07-10T07:09:11.706Z,1011.24
2018-07-10T07:10:11.692Z,1011.30
2018-07-10T07:11:11.740Z,1011.22
2018-07-10T07:12:11.670Z,1011.21
2018-07-10T07:13:11.659Z,1011.30
2018-07-10T07:14:11.648Z,1011.25
2018-07-10T07:15:11.640Z,1011.27
2018-07-10T07:16:11.780Z,1011.38
2018-07-10T07:17:11.626Z,1011.30
2018-07-10T07:18:11.620Z,1011.28
2018-07-10T07:19:11.601Z,1011.36
2018-07-10T07:20:14.492Z,1011.44
2018-07-10T07:21:11.642Z,1011.36
2018-07-10T07:22:11.568Z,1011.21
2018-07-10T07:23:11.554Z,1011.26
2018-07-10T07:24:11.551Z,1011.32
2018-07-10T07:25:11.547Z,1011.33
2018-07-10T07:26:11.592Z,1011.39
2018-07-10T07:27:11.547Z,1011.62
2018-07-10T07:28:11.506Z,1011.23
2018-07-10T07:29:11.501Z,1011.19
2018-07-10T07:30:11.489Z,1011.19
2018-07-10T07:31:11.540Z,1011.28
2018-07-10T07:32:11.463Z,1011.27
2018-07-10T07:33:11.455Z,1011.30
2018-07-10T07:34:11.445Z,1011.25
2018-07-10T07:35:11.433Z,1011.29
2018-07-10T07:36:11.494Z,1011.30
2018-07-10T07:37:11.443Z,1011.32
2018-07-10T07:38:11.412Z,1011.21
2018-07-10T07:39:11.394Z,1011.33
2018-07-10T07:40:11.380Z,1011.31
2018-07-10T07:41:11.567Z,1011.27
2018-07-10T07:42:11.370Z,1011.19
2018-07-10T07:43:11.348Z,1011.18
2018-07-10T07:44:11.389Z,1011.16
2018-07-10T07:45:11.326Z,1011.17
2018-07-10T07:46:11.395Z,1011.16
2018-07-10T07:47:11.302Z,1011.18
2018-07-10T07:48:11.297Z,1011.18
2018-07-10T07:49:11.287Z,1011.14
2018-07-10T07:50:11.268Z,1011.20
2018-07-10T07:51:11.269Z,1011.13
2018-07-10T07:52:11.358Z,1011.13
2018-07-10T07:53:11.242Z,1011.17
2018-07-10T07:54:11.229Z,1011.23
2018-07-10T07:55:11.222Z,1011.19
2018-07-10T07:56:11.204Z,1011.24
2018-07-10T07:57:11.266Z,1011.17
2018-07-10T07:58:11.188Z,1011.25
2018-07-10T07:59:11.177Z,1011.27
2018-07-10T08:00:11.185Z,1011.18
2018-07-10T08:01:11.153Z,1011.21
2018-07-10T08:02:14.569Z,1011.13
2018-07-10T08:03:11.149Z,1011.09
2018-07-10T08:04:11.119Z,1011.12
2018-07-10T08:05:11.111Z,1011.21
2018-07-10T08:06:11.118Z,1011.18
2018-07-10T08:07:11.160Z,1011.09
2018-07-10T08:08:11.080Z,1011.14
2018-07-10T08:09:11.075Z,1011.21
2018-07-10T08:10:11.056Z,1011.12
2018-07-10T08:11:20.779Z,1011.19
2018-07-10T08:12:11.221Z,1011.13
2018-07-10T08:13:11.151Z,1011.16
2018-07-10T08:14:11.091Z,1011.17
2018-07-10T08:15:11.013Z,1011.12
2018-07-10T08:16:11.072Z,1011.19
2018-07-10T08:17:11.048Z,1011.14
2018-07-10T08:18:10.973Z,1011.14
2018-07-10T08:19:11.011Z,1011.15
2018-07-10T08:20:10.958Z,1011.13
2018-07-10T08:21:10.945Z,1011.12
2018-07-10T08:22:11.006Z,1011.07
2018-07-10T08:23:12.529Z,1011.09
2018-07-10T08:24:10.912Z,1011.12
2018-07-10T08:25:10.904Z,1011.10
2018-07-10T08:26:10.898Z,1011.07
2018-07-10T08:27:10.947Z,1011.03
2018-07-10T08:28:10.945Z,1011.05
2018-07-10T08:29:10.862Z,1011.11
2018-07-10T08:30:10.856Z,1011.08
2018-07-10T08:31:10.840Z,1011.06
2018-07-10T08:32:10.901Z,1011.02
2018-07-10T08:33:10.829Z,1010.97
2018-07-10T08:34:10.812Z,1011.04
2018-07-10T08:35:10.798Z,1010.94
2018-07-10T08:36:10.833Z,1011.05
2018-07-10T08:37:10.851Z,1011.11
2018-07-10T08:38:10.768Z,1011.02
2018-07-10T08:39:10.754Z,1010.95
2018-07-10T08:40:10.748Z,1010.84
2018-07-10T08:41:10.772Z,1010.91
2018-07-10T08:42:10.790Z,1010.89
2018-07-10T08:43:10.752Z,1010.84
2018-07-10T08:44:11.523Z,1010.75
2018-07-10T08:45:10.699Z,1010.76
2018-07-10T08:46:10.683Z,1010.74
2018-07-10T08:47:10.746Z,1010.62
2018-07-10T08:48:10.663Z,1010.74
2018-07-10T08:49:10.666Z,1010.74
2018-07-10T08:50:10.641Z,1010.82
2018-07-10T08:51:10.632Z,1010.73
2018-07-10T08:52:10.686Z,1010.75
2018-07-10T08:53:10.611Z,1010.74
2018-07-10T08:54:10.599Z,1010.73
2018-07-10T08:55:10.585Z,1010.73
2018-07-10T08:56:10.578Z,1010.73
2018-07-10T08:57:10.638Z,1010.76
2018-07-10T08:58:10.558Z,1010.76
2018-07-10T08:59:10.549Z,1010.77
2018-07-10T09:00:10.543Z,1010.69
2018-07-10T09:01:10.525Z,1010.76
2018-07-10T09:02:10.652Z,1010.72
2018-07-10T09:03:10.507Z,1010.75
2018-07-10T09:04:10.494Z,1010.79
2018-07-10T09:05:15.029Z,1010.70
2018-07-10T09:06:10.472Z,1010.72
2018-07-10T09:07:11.034Z,1010.67
2018-07-10T09:08:10.453Z,1010.69
2018-07-10T09:09:17.970Z,1010.63
2018-07-10T09:10:10.436Z,1010.63
2018-07-10T09:11:10.547Z,1010.68
2018-07-10T09:12:10.504Z,1010.63
2018-07-10T09:13:10.424Z,1010.62
2018-07-10T09:14:10.389Z,1010.64
2018-07-10T09:15:10.380Z,1010.71
2018-07-10T09:16:19.486Z,1010.72
2018-07-10T09:17:10.480Z,1010.67
2018-07-10T09:18:10.372Z,1010.69
2018-07-10T09:19:10.338Z,1010.76
2018-07-10T09:20:10.341Z,1011.25
2018-07-10T09:21:10.322Z,1010.73
2018-07-10T09:22:10.374Z,1010.74
2018-07-10T09:23:10.420Z,1010.93
2018-07-10T09:24:10.285Z,1011.00
2018-07-10T09:25:10.276Z,1011.14
2018-07-10T09:26:10.261Z,1011.02
2018-07-10T09:27:10.327Z,1011.42
2018-07-10T09:28:10.283Z,1011.27
2018-07-10T09:29:10.237Z,1011.32
2018-07-10T09:30:10.230Z,1010.88
2018-07-10T09:31:10.221Z,1010.89
2018-07-10T09:32:10.286Z,1010.83
2018-07-10T09:33:10.209Z,1010.95
2018-07-10T09:34:10.187Z,1010.82
2018-07-10T09:35:10.234Z,1010.81
2018-07-10T09:36:10.167Z,1010.77
2018-07-10T09:37:11.100Z,1010.73
2018-07-10T09:38:10.283Z,1010.65
2018-07-10T09:39:10.137Z,1010.51
2018-07-10T09:40:10.142Z,1010.60
2018-07-10T09:41:10.117Z,1010.65
2018-07-10T09:42:10.104Z,1010.62
2018-07-10T09:43:10.165Z,1010.53
2018-07-10T09:44:10.223Z,1010.60
2018-07-10T09:45:10.079Z,1010.56
2018-07-10T09:46:10.070Z,1010.65
2018-07-10T09:47:10.631Z,1010.61
2018-07-10T09:48:10.130Z,1010.56
2018-07-10T09:49:10.035Z,1010.54
2018-07-10T09:50:10.026Z,1010.54
2018-07-10T09:51:10.023Z,1010.54
2018-07-10T09:52:10.007Z,1010.55
2018-07-10T09:53:10.196Z,1010.53
2018-07-10T09:54:09.987Z,1010.52
2018-07-10T09:55:09.975Z,1010.59
2018-07-10T09:56:09.989Z,1010.52
2018-07-10T09:57:09.952Z,1010.54
2018-07-10T09:58:18.119Z,1010.60
2018-07-10T09:59:18.707Z,1010.59
2018-07-10T10:00:17.545Z,1010.55
2018-07-10T10:01:17.439Z,1010.65
2018-07-10T10:02:09.973Z,1010.59
2018-07-10T10:03:09.993Z,1010.62
2018-07-10T10:04:09.881Z,1010.67
2018-07-10T10:05:18.123Z,1010.55
2018-07-10T10:06:18.221Z,1010.60
2018-07-10T10:07:17.383Z,1010.55
2018-07-10T10:08:17.458Z,1010.49
2018-07-10T10:09:19.724Z,1010.47
2018-07-10T10:10:09.892Z,1010.46
2018-07-10T10:11:09.823Z,1010.41
2018-07-10T10:12:09.796Z,1010.49
2018-07-10T10:13:09.870Z,1010.49
2018-07-10T10:14:09.776Z,1010.46
2018-07-10T10:15:09.771Z,1010.48
2018-07-10T10:16:09.763Z,1010.47
2018-07-10T10:17:09.756Z,1010.47
2018-07-10T10:18:09.804Z,1010.47
2018-07-10T10:19:09.756Z,1010.45
2018-07-10T10:20:09.718Z,1010.48
2018-07-10T10:21:09.704Z,1010.40
2018-07-10T10:22:09.704Z,1010.42
2018-07-10T10:23:09.997Z,1010.52
2018-07-10T10:24:09.674Z,1010.37
2018-07-10T10:25:09.663Z,1010.44
2018-07-10T10:26:09.671Z,1010.42
2018-07-10T10:27:09.649Z,1010.43
2018-07-10T10:28:09.703Z,1010.38
2018-07-10T10:29:09.621Z,1010.41
2018-07-10T10:30:10.421Z,1010.46
2018-07-10T10:31:09.606Z,1010.48
2018-07-10T10:32:09.591Z,1010.40
2018-07-10T10:33:09.655Z,1010.41
2018-07-10T10:34:09.595Z,1010.46
2018-07-10T10:35:09.565Z,1010.45
2018-07-10T10:36:09.552Z,1010.47
2018-07-10T10:37:09.543Z,1010.48
2018-07-10T10:38:09.612Z,1010.40
2018-07-10T10:39:09.518Z,1010.40
2018-07-10T10:40:09.513Z,1010.38
2018-07-10T10:41:09.501Z,1010.40
2018-07-10T10:42:09.488Z,1010.36
2018-07-10T10:43:09.542Z,1010.33
2018-07-10T10:44:09.488Z,1010.24
2018-07-10T10:45:09.459Z,1010.22
2018-07-10T10:46:09.454Z,1010.24
2018-07-10T10:47:09.439Z,1010.18
2018-07-10T10:48:09.498Z,1010.16
2018-07-10T10:49:09.416Z,1010.12
2018-07-10T10:50:09.405Z,1010.25
2018-07-10T10:51:09.930Z,1010.31
2018-07-10T10:52:09.386Z,1010.30
2018-07-10T10:53:09.444Z,1010.31
2018-07-10T10:54:17.531Z,1010.28
2018-07-10T10:55:09.361Z,1010.26
2018-07-10T10:56:09.403Z,1010.27
2018-07-10T10:57:09.374Z,1010.21
2018-07-10T10:58:09.421Z,1010.24
2018-07-10T10:59:09.332Z,1010.18
2018-07-10T11:00:09.303Z,1010.25
2018-07-10T11:01:09.294Z,1010.20
2018-07-10T11:02:09.284Z,1010.23
2018-07-10T11:03:09.355Z,1010.15
2018-07-10T11:04:09.264Z,1010.22
2018-07-10T11:05:09.250Z,1010.19
2018-07-10T11:06:09.240Z,1010.14
2018-07-10T11:07:09.228Z,1010.11
2018-07-10T11:08:09.283Z,1010.18
2018-07-10T11:09:09.205Z,1010.22
2018-07-10T11:10:09.200Z,1010.23
2018-07-10T11:11:09.192Z,1010.26
2018-07-10T11:12:09.176Z,1010.15
2018-07-10T11:13:09.280Z,1010.20
2018-07-10T11:14:09.155Z,1010.18
2018-07-10T11:15:09.964Z,1010.24
2018-07-10T11:16:09.150Z,1010.19
2018-07-10T11:17:09.237Z,1010.20
2018-07-10T11:18:09.119Z,1010.16
2018-07-10T11:19:09.176Z,1010.17
2018-07-10T11:20:09.097Z,1010.19
2018-07-10T11:21:10.520Z,1010.24
2018-07-10T11:22:09.067Z,1010.20
2018-07-10T11:23:09.078Z,1010.18
2018-07-10T11:24:09.231Z,1010.15
2018-07-10T11:25:09.141Z,1010.13
2018-07-10T11:26:09.042Z,1010.15
2018-07-10T11:27:09.065Z,1010.12
2018-07-10T11:28:09.073Z,1010.22
2018-07-10T11:29:10.013Z,1010.18
2018-07-10T11:30:08.991Z,1010.18
2018-07-10T11:31:08.976Z,1010.10
2018-07-10T11:32:09.053Z,1010.15
2018-07-10T11:33:09.858Z,1010.17
2018-07-10T11:34:09.009Z,1010.17
2018-07-10T11:35:08.932Z,1010.12
2018-07-10T11:36:09.465Z,1010.20
2018-07-10T11:37:09.000Z,1010.15
2018-07-10T11:38:08.979Z,1010.12
2018-07-10T11:39:09.547Z,1010.19
2018-07-10T11:40:08.883Z,1010.08
2018-07-10T11:41:08.887Z,1010.15
2018-07-10T11:42:08.869Z,1010.11
2018-07-10T11:43:08.926Z,1010.19
2018-07-10T11:44:09.059Z,1010.21
2018-07-10T11:45:08.836Z,1010.18
2018-07-10T11:46:08.827Z,1010.13
2018-07-10T11:47:08.810Z,1010.08
2018-07-10T11:48:08.802Z,1010.17
2018-07-10T11:49:08.866Z,1010.13
2018-07-10T11:50:08.783Z,1010.18
2018-07-10T11:51:08.780Z,1010.08
2018-07-10T11:52:08.774Z,1010.12
2018-07-10T11:53:08.752Z,1010.09
2018-07-10T11:54:08.830Z,1010.08
2018-07-10T11:55:08.807Z,1010.09
2018-07-10T11:56:08.714Z,1010.03
2018-07-10T11:57:09.469Z,1010.01
2018-07-10T11:58:08.692Z,1010.07
2018-07-10T11:59:08.768Z,1009.97
2018-07-10T12:00:08.686Z,1009.88
2018-07-10T12:01:08.672Z,1010.00
2018-07-10T12:02:08.653Z,1009.96
2018-07-10T12:03:08.655Z,1009.95
2018-07-10T12:04:08.708Z,1009.92
2018-07-10T12:05:08.629Z,1009.88
2018-07-10T12:06:08.615Z,1009.96
2018-07-10T12:07:08.609Z,1009.91
2018-07-10T12:08:08.594Z,1009.94
2018-07-10T12:09:08.684Z,1009.86
2018-07-10T12:10:08.586Z,1009.88
2018-07-10T12:11:08.559Z,1009.86
2018-07-10T12:12:08.588Z,1009.95
2018-07-10T12:13:08.552Z,1009.96
2018-07-10T12:14:08.611Z,1009.94
2018-07-10T12:15:08.528Z,1009.89
2018-07-10T12:16:08.525Z,1009.86
2018-07-10T12:17:08.501Z,1009.74
2018-07-10T12:18:11.471Z,1009.76
2018-07-10T12:19:08.553Z,1009.77
2018-07-10T12:20:08.474Z,1009.72